createdAt,value
2023-04-27T00:00:26.223Z,0.52
2023-04-27T00:01:26.259Z,0.52
2023-04-27T00:02:26.397Z,0.52
2023-04-27T00:03:26.850Z,0.53
2023-04-27T00:04:26.623Z,0.52
2023-04-27T00:05:26.562Z,0.52
2023-04-27T00:06:26.490Z,0.53
2023-04-27T00:07:26.553Z,0.51
2023-04-27T00:08:26.575Z,0.52
2023-04-27T00:09:26.628Z,0.51
2023-04-27T00:10:26.702Z,0.52
2023-04-27T00:11:26.719Z,0.51
2023-04-27T00:12:26.789Z,0.51
2023-04-27T00:13:26.831Z,0.51
2023-04-27T00:14:26.861Z,0.52
2023-04-27T00:15:26.905Z,0.51
2023-04-27T00:16:27.001Z,0.51
2023-04-27T00:17:27.046Z,0.50
2023-04-27T00:18:27.054Z,0.52
2023-04-27T00:19:27.134Z,0.51
2023-04-27T00:20:27.341Z,0.51
2023-04-27T00:21:27.215Z,0.51
2023-04-27T00:22:27.299Z,0.51
2023-04-27T00:23:27.323Z,0.52
2023-04-27T00:24:27.343Z,0.51
2023-04-27T00:25:27.389Z,0.51
2023-04-27T00:26:27.457Z,0.50
2023-04-27T00:27:27.498Z,0.52
2023-04-27T00:28:27.541Z,0.51
2023-04-27T00:29:27.610Z,0.52
2023-04-27T00:30:27.798Z,0.52
2023-04-27T00:31:27.739Z,0.53
2023-04-27T00:32:27.787Z,0.51
2023-04-27T00:33:27.820Z,0.52
2023-04-27T00:34:27.863Z,0.52
2023-04-27T00:35:28.327Z,0.51
2023-04-27T00:36:27.961Z,0.51
2023-04-27T00:37:28.035Z,0.51
2023-04-27T00:38:28.073Z,0.51
2023-04-27T00:39:28.131Z,0.51
2023-04-27T00:40:28.325Z,0.51
2023-04-27T00:41:28.252Z,0.51
2023-04-27T00:42:28.287Z,0.53
2023-04-27T00:43:28.343Z,0.52
2023-04-27T00:44:28.420Z,0.50
2023-04-27T00:45:28.450Z,0.51
2023-04-27T00:46:28.595Z,0.51
2023-04-27T00:47:28.577Z,0.51
2023-04-27T00:48:28.607Z,0.51
2023-04-27T00:49:28.662Z,0.52
2023-04-27T00:50:28.730Z,0.51
2023-04-27T00:51:28.763Z,0.52
2023-04-27T00:52:28.804Z,0.51
2023-04-27T00:53:28.835Z,0.52
2023-04-27T00:54:28.926Z,0.52
2023-04-27T00:55:29.089Z,0.52
2023-04-27T00:56:29.054Z,0.51
2023-04-27T00:57:29.073Z,0.52
2023-04-27T00:58:29.129Z,0.51
2023-04-27T00:59:29.189Z,0.52
2023-04-27T01:00:29.246Z,0.52
2023-04-27T01:01:29.303Z,0.51
2023-04-27T01:02:29.463Z,0.52
2023-04-27T01:03:29.491Z,0.51
2023-04-27T01:04:29.623Z,0.51
2023-04-27T01:05:31.919Z,0.52
2023-04-27T01:06:29.492Z,0.51
2023-04-27T01:07:29.512Z,0.52
2023-04-27T01:08:29.462Z,0.51
2023-04-27T01:09:29.490Z,0.52
2023-04-27T01:10:29.447Z,0.53
2023-04-27T01:11:29.488Z,0.51
2023-04-27T01:12:29.448Z,0.51
2023-04-27T01:13:29.420Z,0.52
2023-04-27T01:14:29.410Z,0.51
2023-04-27T01:15:29.451Z,0.52
2023-04-27T01:16:29.479Z,0.52
2023-04-27T01:17:29.445Z,0.52
2023-04-27T01:18:29.412Z,0.51
2023-04-27T01:19:29.397Z,0.51
2023-04-27T01:20:29.384Z,0.51
2023-04-27T01:21:29.401Z,0.52
2023-04-27T01:22:29.383Z,0.50
2023-04-27T01:23:29.392Z,0.52
2023-04-27T01:24:29.365Z,0.51
2023-04-27T01:25:29.343Z,0.50
2023-04-27T01:26:29.352Z,0.51
2023-04-27T01:27:29.325Z,0.52
2023-04-27T01:28:29.317Z,0.51
2023-04-27T01:29:29.388Z,0.51
2023-04-27T01:30:29.308Z,0.52
2023-04-27T01:31:29.372Z,0.50
2023-04-27T01:32:29.384Z,0.52
2023-04-27T01:33:29.295Z,0.51
2023-04-27T01:34:29.293Z,0.52
2023-04-27T01:35:29.342Z,0.51
2023-04-27T01:36:29.292Z,0.51
2023-04-27T01:37:29.258Z,0.51
2023-04-27T01:38:29.263Z,0.51
2023-04-27T01:39:29.271Z,0.51
2023-04-27T01:40:29.286Z,0.52
2023-04-27T01:41:29.244Z,0.52
2023-04-27T01:42:29.295Z,0.51
2023-04-27T01:43:29.227Z,0.51
2023-04-27T01:44:29.287Z,0.51
2023-04-27T01:45:29.363Z,0.50
2023-04-27T01:46:29.426Z,0.51
2023-04-27T01:47:29.475Z,0.51
2023-04-27T01:48:29.509Z,0.51
2023-04-27T01:49:29.604Z,0.52
2023-04-27T01:50:29.658Z,0.51
2023-04-27T01:51:29.706Z,0.52
2023-04-27T01:52:29.859Z,0.51
2023-04-27T01:53:29.814Z,0.50
2023-04-27T01:54:29.859Z,0.51
2023-04-27T01:55:29.920Z,0.51
2023-04-27T01:56:30.012Z,0.51
2023-04-27T01:57:30.059Z,0.51
2023-04-27T01:58:30.081Z,0.51
2023-04-27T01:59:30.126Z,0.51
2023-04-27T02:00:30.244Z,0.50
2023-04-27T02:01:30.304Z,0.51
2023-04-27T02:02:30.387Z,0.51
2023-04-27T02:03:30.576Z,0.51
2023-04-27T02:04:30.563Z,0.51
2023-04-27T02:05:30.842Z,0.51
2023-04-27T02:06:30.526Z,0.52
2023-04-27T02:07:30.555Z,0.51
2023-04-27T02:08:30.642Z,0.51
2023-04-27T02:09:30.689Z,0.51
2023-04-27T02:10:30.723Z,0.51
2023-04-27T02:11:30.790Z,0.52
2023-04-27T02:12:30.834Z,0.52
2023-04-27T02:13:30.903Z,0.52
2023-04-27T02:14:30.951Z,0.52
2023-04-27T02:15:31.029Z,0.51
2023-04-27T02:16:31.170Z,0.52
2023-04-27T02:17:31.132Z,0.51
2023-04-27T02:18:31.181Z,0.51
2023-04-27T02:19:31.225Z,0.52
2023-04-27T02:20:31.306Z,0.51
2023-04-27T02:21:31.346Z,0.50
2023-04-27T02:22:31.422Z,0.52
2023-04-27T02:23:31.466Z,0.51
2023-04-27T02:24:31.537Z,0.51
2023-04-27T02:25:31.575Z,0.51
2023-04-27T02:26:31.663Z,0.53
2023-04-27T02:27:31.683Z,0.52
2023-04-27T02:28:31.777Z,0.52
2023-04-27T02:29:31.832Z,0.52
2023-04-27T02:30:31.890Z,0.52
2023-04-27T02:31:31.957Z,0.51
2023-04-27T02:32:32.025Z,0.52
2023-04-27T02:33:32.044Z,0.52
2023-04-27T02:34:32.134Z,0.53
2023-04-27T02:35:32.183Z,0.51
2023-04-27T02:36:32.248Z,0.51
2023-04-27T02:37:32.355Z,0.51
2023-04-27T02:38:32.384Z,0.51
2023-04-27T02:39:32.442Z,0.51
2023-04-27T02:40:32.487Z,0.51
2023-04-27T02:41:32.530Z,0.51
2023-04-27T02:42:32.611Z,0.51
2023-04-27T02:43:32.652Z,0.52
2023-04-27T02:44:32.719Z,0.51
2023-04-27T02:45:32.777Z,0.52
2023-04-27T02:46:32.905Z,0.51
2023-04-27T02:47:32.928Z,0.51
2023-04-27T02:48:32.949Z,0.51
2023-04-27T02:49:32.999Z,0.51
2023-04-27T02:50:33.030Z,0.51
2023-04-27T02:51:33.085Z,0.51
2023-04-27T02:52:33.146Z,0.53
2023-04-27T02:53:33.227Z,0.52
2023-04-27T02:54:33.291Z,0.52
2023-04-27T02:55:33.344Z,0.53
2023-04-27T02:56:33.418Z,0.52
2023-04-27T02:57:33.435Z,0.52
2023-04-27T02:58:33.526Z,0.52
2023-04-27T02:59:33.560Z,0.50
2023-04-27T03:00:33.634Z,0.52
2023-04-27T03:01:33.724Z,0.52
2023-04-27T03:02:33.869Z,0.52
2023-04-27T03:03:33.937Z,0.53
2023-04-27T03:04:34.021Z,0.52
2023-04-27T03:05:33.933Z,0.51
2023-04-27T03:06:33.986Z,0.51
2023-04-27T03:07:34.062Z,0.51
2023-04-27T03:08:34.093Z,0.53
2023-04-27T03:09:34.166Z,0.51
2023-04-27T03:10:34.235Z,0.51
2023-04-27T03:11:36.212Z,0.52
2023-04-27T03:12:34.299Z,0.52
2023-04-27T03:13:34.293Z,0.52
2023-04-27T03:14:34.278Z,0.52
2023-04-27T03:15:34.294Z,0.51
2023-04-27T03:16:34.314Z,0.52
2023-04-27T03:17:34.273Z,0.50
2023-04-27T03:18:34.220Z,0.52
2023-04-27T03:19:34.257Z,0.51
2023-04-27T03:20:34.218Z,0.53
2023-04-27T03:21:34.228Z,0.52
2023-04-27T03:22:34.234Z,0.52
2023-04-27T03:23:34.213Z,0.51
2023-04-27T03:24:34.210Z,0.52
2023-04-27T03:25:34.359Z,0.51
2023-04-27T03:26:34.230Z,0.52
2023-04-27T03:27:34.170Z,0.51
2023-04-27T03:28:34.190Z,0.52
2023-04-27T03:29:34.194Z,0.52
2023-04-27T03:30:34.206Z,0.52
2023-04-27T03:31:34.237Z,0.52
2023-04-27T03:32:34.199Z,0.52
2023-04-27T03:33:34.133Z,0.52
2023-04-27T03:34:34.157Z,0.52
2023-04-27T03:35:34.153Z,0.52
2023-04-27T03:36:34.149Z,0.52
2023-04-27T03:37:34.126Z,0.50
2023-04-27T03:38:34.150Z,0.51
2023-04-27T03:39:34.161Z,0.51
2023-04-27T03:40:34.139Z,0.52
2023-04-27T03:41:34.104Z,0.52
2023-04-27T03:42:34.095Z,0.52
2023-04-27T03:43:34.077Z,0.52
2023-04-27T03:44:34.110Z,0.51
2023-04-27T03:45:34.100Z,0.52
2023-04-27T03:46:34.160Z,0.52
2023-04-27T03:47:34.102Z,0.51
2023-04-27T03:48:34.077Z,0.52
2023-04-27T03:49:34.085Z,0.53
2023-04-27T03:50:34.128Z,0.51
2023-04-27T03:51:34.166Z,0.52
2023-04-27T03:52:34.245Z,0.52
2023-04-27T03:53:34.307Z,0.52
2023-04-27T03:54:34.376Z,0.52
2023-04-27T03:55:34.871Z,0.53
2023-04-27T03:56:34.462Z,0.53
2023-04-27T03:57:34.548Z,0.53
2023-04-27T03:58:34.587Z,0.53
2023-04-27T03:59:34.656Z,0.52
2023-04-27T04:00:34.775Z,0.52
2023-04-27T04:01:34.772Z,0.52
2023-04-27T04:02:34.910Z,0.53
2023-04-27T04:03:35.014Z,0.51
2023-04-27T04:04:35.076Z,0.52
2023-04-27T04:05:35.044Z,0.50
2023-04-27T04:06:35.090Z,0.52
2023-04-27T04:07:35.141Z,0.52
2023-04-27T04:08:35.240Z,0.52
2023-04-27T04:09:35.266Z,0.51
2023-04-27T04:10:35.360Z,0.51
2023-04-27T04:11:35.389Z,0.52
2023-04-27T04:12:35.430Z,0.52
2023-04-27T04:13:35.633Z,0.52
2023-04-27T04:14:35.587Z,0.52
2023-04-27T04:15:35.645Z,0.52
2023-04-27T04:16:35.667Z,0.52
2023-04-27T04:17:35.747Z,0.51
2023-04-27T04:18:35.774Z,0.52
2023-04-27T04:19:35.850Z,0.52
2023-04-27T04:20:35.884Z,0.52
2023-04-27T04:21:35.965Z,0.51
2023-04-27T04:22:36.005Z,0.52
2023-04-27T04:23:36.024Z,0.52
2023-04-27T04:24:36.105Z,0.52
2023-04-27T04:25:36.157Z,0.51
2023-04-27T04:26:36.219Z,0.51
2023-04-27T04:27:58.133Z,0.50
2023-04-27T04:28:58.224Z,0.50
2023-04-27T04:29:58.126Z,0.50
2023-04-27T04:30:58.212Z,0.50
2023-04-27T04:31:58.110Z,0.50
2023-04-27T04:32:58.121Z,0.50
2023-04-27T04:33:58.068Z,0.51
2023-04-27T04:34:58.069Z,0.50
2023-04-27T04:35:58.056Z,0.51
2023-04-27T04:36:58.029Z,0.50
2023-04-27T04:37:58.029Z,0.50
2023-04-27T04:38:58.035Z,0.51
2023-04-27T04:39:58.003Z,0.52
2023-04-27T04:40:58.036Z,0.52
2023-04-27T04:41:58.064Z,0.52
2023-04-27T04:42:58.149Z,0.50
2023-04-27T04:43:58.217Z,0.51
2023-04-27T04:44:58.269Z,0.51
2023-04-27T04:45:58.337Z,0.50
2023-04-27T04:46:58.536Z,0.51
2023-04-27T04:47:58.491Z,0.51
2023-04-27T04:48:58.521Z,0.51
2023-04-27T04:49:58.569Z,0.52
2023-04-27T04:50:58.670Z,0.51
2023-04-27T04:51:58.719Z,0.52
2023-04-27T04:52:58.802Z,0.51
2023-04-27T04:54:01.202Z,0.50
2023-04-27T04:54:58.825Z,0.52
2023-04-27T04:55:59.336Z,0.51
2023-04-27T04:56:58.819Z,0.52
2023-04-27T04:57:58.833Z,0.50
2023-04-27T04:58:58.804Z,0.52
2023-04-27T04:59:58.822Z,0.51
2023-04-27T05:00:58.901Z,0.51
2023-04-27T05:01:58.863Z,0.51
2023-04-27T05:02:58.953Z,0.50
2023-04-27T05:03:58.982Z,0.52
2023-04-27T05:04:58.806Z,0.52
2023-04-27T05:05:58.818Z,0.52
2023-04-27T05:06:58.790Z,0.53
2023-04-27T05:07:58.756Z,0.53
2023-04-27T05:08:58.740Z,0.53
2023-04-27T05:09:58.756Z,0.52
2023-04-27T05:10:58.840Z,0.52
2023-04-27T05:11:58.725Z,0.52
2023-04-27T05:12:58.733Z,0.52
2023-04-27T05:13:58.678Z,0.52
2023-04-27T05:14:58.696Z,0.51
2023-04-27T05:15:58.719Z,0.52
2023-04-27T05:16:58.699Z,0.51
2023-04-27T05:17:58.694Z,0.53
2023-04-27T05:18:58.651Z,0.51
2023-04-27T05:19:58.646Z,0.51
2023-04-27T05:20:58.686Z,0.52
2023-04-27T05:21:58.668Z,0.51
2023-04-27T05:22:58.653Z,0.51
2023-04-27T05:23:58.659Z,0.50
2023-04-27T05:24:58.724Z,0.52
2023-04-27T05:25:58.791Z,0.51
2023-04-27T05:27:00.767Z,0.51
2023-04-27T05:27:58.840Z,0.52
2023-04-27T05:28:58.814Z,0.51
2023-04-27T05:29:58.804Z,0.52
2023-04-27T05:30:58.809Z,0.51
2023-04-27T05:31:58.893Z,0.51
2023-04-27T05:32:58.819Z,0.50
2023-04-27T05:33:58.803Z,0.52
2023-04-27T05:34:58.797Z,0.51
2023-04-27T05:35:58.823Z,0.51
2023-04-27T05:36:58.760Z,0.51
2023-04-27T05:37:58.791Z,0.52
2023-04-27T05:38:58.755Z,0.51
2023-04-27T05:39:58.764Z,0.51
2023-04-27T05:40:58.788Z,0.51
2023-04-27T05:41:58.765Z,0.52
2023-04-27T05:42:58.766Z,0.52
2023-04-27T05:43:58.720Z,0.52
2023-04-27T05:44:58.740Z,0.53
2023-04-27T05:45:58.763Z,0.53
2023-04-27T05:46:58.696Z,0.52
2023-04-27T05:47:58.772Z,0.53
2023-04-27T05:48:58.710Z,0.52
2023-04-27T05:49:58.693Z,0.51
2023-04-27T05:50:58.815Z,0.52
2023-04-27T05:51:58.672Z,0.55
2023-04-27T05:52:58.689Z,0.56
2023-04-27T05:53:58.685Z,0.54
2023-04-27T05:54:58.661Z,0.54
2023-04-27T05:55:58.671Z,0.52
2023-04-27T05:56:58.635Z,0.53
2023-04-27T05:58:07.833Z,0.54
2023-04-27T05:59:10.790Z,0.54
2023-04-27T05:59:59.644Z,0.54
2023-04-27T06:00:58.852Z,0.54
2023-04-27T06:01:58.640Z,0.55
2023-04-27T06:02:58.694Z,0.57
2023-04-27T06:03:58.660Z,0.59
2023-04-27T06:04:58.626Z,0.57
2023-04-27T06:05:59.169Z,0.58
2023-04-27T06:06:58.570Z,0.56
2023-04-27T06:07:58.599Z,0.57
2023-04-27T06:08:58.540Z,0.57
2023-04-27T06:09:58.532Z,0.58
2023-04-27T06:10:58.548Z,0.62
2023-04-27T06:11:58.571Z,0.66
2023-04-27T06:12:58.512Z,0.65
2023-04-27T06:13:58.524Z,0.65
2023-04-27T06:14:58.533Z,0.65
2023-04-27T06:15:58.542Z,0.68
2023-04-27T06:16:58.516Z,0.67
2023-04-27T06:17:58.563Z,0.66
2023-04-27T06:18:58.488Z,0.67
2023-04-27T06:19:58.493Z,0.70
2023-04-27T06:20:58.833Z,0.70
2023-04-27T06:21:58.479Z,0.71
2023-04-27T06:22:58.483Z,0.71
2023-04-27T06:23:59.329Z,0.71
2023-04-27T06:24:58.449Z,0.69
2023-04-27T06:25:58.454Z,0.72
2023-04-27T06:26:58.454Z,0.73
2023-04-27T06:27:58.441Z,0.74
2023-04-27T06:28:58.488Z,0.75
2023-04-27T06:29:58.506Z,0.75
2023-04-27T06:30:58.546Z,0.73
2023-04-27T06:31:58.603Z,0.74
2023-04-27T06:32:58.558Z,0.76
2023-04-27T06:33:58.588Z,0.78
2023-04-27T06:34:58.587Z,0.74
2023-04-27T06:35:58.853Z,0.76
2023-04-27T06:36:58.639Z,0.76
2023-04-27T06:37:58.708Z,0.76
2023-04-27T06:38:58.653Z,0.79
2023-04-27T06:39:58.658Z,0.80
2023-04-27T06:40:58.864Z,0.79
2023-04-27T06:41:58.673Z,0.81
2023-04-27T06:42:58.677Z,0.80
2023-04-27T06:43:59.260Z,0.77
2023-04-27T06:44:58.735Z,0.76
2023-04-27T06:45:58.734Z,0.78
2023-04-27T06:46:58.730Z,0.80
2023-04-27T06:47:58.770Z,0.85
2023-04-27T06:48:58.699Z,0.85
2023-04-27T06:49:58.739Z,0.81
2023-04-27T06:50:58.702Z,0.79
2023-04-27T06:51:58.719Z,0.86
2023-04-27T06:52:58.739Z,0.82
2023-04-27T06:53:58.726Z,0.82
2023-04-27T06:54:58.700Z,0.85
2023-04-27T06:55:58.720Z,0.84
2023-04-27T06:56:58.725Z,0.78
2023-04-27T06:57:58.697Z,0.78
2023-04-27T06:58:58.704Z,0.78
2023-04-27T06:59:58.800Z,0.76
2023-04-27T07:00:58.709Z,0.76
2023-04-27T07:01:58.969Z,0.75
2023-04-27T07:02:58.969Z,0.78
2023-04-27T07:03:58.810Z,0.73
2023-04-27T07:04:58.806Z,0.73
2023-04-27T07:05:58.718Z,0.77
2023-04-27T07:06:58.762Z,0.74
2023-04-27T07:08:00.636Z,0.77
2023-04-27T07:08:58.730Z,0.78
2023-04-27T07:09:58.752Z,0.80
2023-04-27T07:10:58.721Z,0.78
2023-04-27T07:11:58.700Z,0.79
2023-04-27T07:12:58.687Z,0.79
2023-04-27T07:13:58.706Z,0.77
2023-04-27T07:14:58.679Z,0.77
2023-04-27T07:15:58.703Z,0.69
2023-04-27T07:16:58.639Z,0.61
2023-04-27T07:17:58.714Z,0.55
2023-04-27T07:18:58.654Z,0.51
2023-04-27T07:19:58.659Z,0.50
2023-04-27T07:20:58.646Z,0.51
2023-04-27T07:21:58.642Z,0.50
2023-04-27T07:22:58.624Z,0.52
2023-04-27T07:23:58.600Z,0.50
2023-04-27T07:24:58.602Z,0.51
2023-04-27T07:25:58.882Z,0.51
2023-04-27T07:26:58.578Z,0.51
2023-04-27T07:27:58.588Z,0.51
2023-04-27T07:28:58.575Z,0.51
2023-04-27T07:29:58.573Z,0.51
2023-04-27T07:30:58.587Z,0.51
2023-04-27T07:31:58.601Z,0.51
2023-04-27T07:32:58.649Z,0.51
2023-04-27T07:33:58.578Z,0.50
2023-04-27T07:34:58.600Z,0.50
2023-04-27T07:35:58.911Z,0.51
2023-04-27T07:36:58.528Z,0.52
2023-04-27T07:37:58.527Z,0.53
2023-04-27T07:38:58.515Z,0.50
2023-04-27T07:39:58.504Z,0.50
2023-04-27T07:40:58.513Z,0.53
2023-04-27T07:41:58.479Z,0.50
2023-04-27T07:42:58.484Z,0.51
2023-04-27T07:43:58.481Z,0.51
2023-04-27T07:44:58.473Z,0.54
2023-04-27T07:45:58.924Z,0.54
2023-04-27T07:46:58.461Z,0.55
2023-04-27T07:47:58.914Z,0.56
2023-04-27T07:48:58.425Z,0.54
2023-04-27T07:49:58.439Z,0.52
2023-04-27T07:50:58.494Z,0.55
2023-04-27T07:51:58.411Z,0.58
2023-04-27T07:52:58.419Z,0.63
2023-04-27T07:53:58.401Z,0.66
2023-04-27T07:54:58.430Z,0.65
2023-04-27T07:55:58.396Z,0.65
2023-04-27T07:56:58.402Z,0.69
2023-04-27T07:57:58.437Z,0.69
2023-04-27T07:58:58.370Z,0.70
2023-04-27T07:59:58.381Z,0.70
2023-04-27T08:00:58.360Z,0.72
2023-04-27T08:02:15.049Z,0.74
2023-04-27T08:02:59.574Z,0.75
2023-04-27T08:03:58.608Z,0.75
2023-04-27T08:04:58.944Z,0.75
2023-04-27T08:05:58.831Z,0.77
2023-04-27T08:06:58.927Z,0.81
2023-04-27T08:07:58.658Z,0.83
2023-04-27T08:08:58.674Z,0.86
2023-04-27T08:09:58.745Z,0.89
2023-04-27T08:10:58.798Z,0.90
2023-04-27T08:11:58.850Z,0.93
2023-04-27T08:12:58.962Z,0.97
2023-04-27T08:13:58.982Z,1.02
2023-04-27T08:14:59.038Z,1.13
2023-04-27T08:15:59.132Z,1.16
2023-04-27T08:16:59.207Z,1.20
2023-04-27T08:17:59.200Z,1.23
2023-04-27T08:19:00.705Z,1.23
2023-04-27T08:19:59.342Z,1.27
2023-04-27T08:20:59.340Z,1.29
2023-04-27T08:21:59.382Z,1.28
2023-04-27T08:22:59.440Z,1.26
2023-04-27T08:23:59.505Z,1.27
2023-04-27T08:24:59.559Z,1.29
2023-04-27T08:25:59.889Z,1.27
2023-04-27T08:26:59.611Z,1.24
2023-04-27T08:27:59.672Z,1.25
2023-04-27T08:28:59.711Z,1.58
2023-04-27T08:29:59.726Z,1.48
2023-04-27T08:30:59.778Z,1.35
2023-04-27T08:31:59.885Z,1.37
2023-04-27T08:32:59.975Z,1.33
2023-04-27T08:33:59.873Z,1.34
2023-04-27T08:34:59.902Z,1.35
2023-04-27T08:35:59.932Z,1.38
2023-04-27T08:36:59.970Z,1.39
2023-04-27T08:37:59.996Z,1.42
2023-04-27T08:39:00.045Z,1.41
2023-04-27T08:40:00.158Z,1.44
2023-04-27T08:41:07.561Z,1.44
2023-04-27T08:42:01.134Z,1.44
2023-04-27T08:43:00.137Z,1.37
2023-04-27T08:44:00.109Z,1.33
2023-04-27T08:45:00.089Z,1.29
2023-04-27T08:46:00.162Z,1.31
2023-04-27T08:47:00.066Z,1.38
2023-04-27T08:48:00.111Z,1.34
2023-04-27T08:49:00.097Z,1.30
2023-04-27T08:50:00.082Z,1.27
2023-04-27T08:51:00.071Z,1.30
2023-04-27T08:52:00.027Z,1.29
2023-04-27T08:53:00.049Z,1.27
2023-04-27T08:54:00.068Z,1.30
2023-04-27T08:55:00.025Z,1.36
2023-04-27T08:56:00.033Z,1.24
2023-04-27T08:57:00.016Z,1.19
2023-04-27T08:58:00.009Z,1.12
2023-04-27T08:59:00.088Z,1.12
2023-04-27T09:00:00.073Z,1.05
2023-04-27T09:01:00.192Z,1.05
2023-04-27T09:02:00.226Z,0.98
2023-04-27T09:03:00.392Z,0.95
2023-04-27T09:04:00.577Z,0.93
2023-04-27T09:05:00.506Z,0.92
2023-04-27T09:06:05.242Z,0.92
2023-04-27T09:07:01.308Z,0.92
2023-04-27T09:08:00.286Z,0.92
2023-04-27T09:09:00.293Z,0.92
2023-04-27T09:10:00.303Z,0.90
2023-04-27T09:11:00.286Z,0.90
2023-04-27T09:12:00.251Z,0.89
2023-04-27T09:13:00.391Z,0.87
2023-04-27T09:14:00.276Z,0.86
2023-04-27T09:15:00.228Z,0.85
2023-04-27T09:16:00.347Z,0.84
2023-04-27T09:17:00.453Z,0.83
2023-04-27T09:18:00.551Z,0.82
2023-04-27T09:19:00.504Z,0.81
2023-04-27T09:20:00.526Z,0.80
2023-04-27T09:21:00.628Z,0.81
2023-04-27T09:22:00.659Z,0.81
2023-04-27T09:23:00.733Z,0.81
2023-04-27T09:24:00.792Z,0.79
2023-04-27T09:25:00.884Z,0.78
2023-04-27T09:26:00.923Z,0.81
2023-04-27T09:27:01.187Z,0.77
2023-04-27T09:28:01.041Z,0.78
2023-04-27T09:29:01.129Z,0.78
2023-04-27T09:30:01.216Z,0.77
2023-04-27T09:31:01.254Z,0.77
2023-04-27T09:32:01.379Z,0.79
2023-04-27T09:33:01.420Z,0.76
2023-04-27T09:34:01.422Z,0.75
2023-04-27T09:35:01.477Z,0.75
2023-04-27T09:36:01.588Z,0.75
2023-04-27T09:37:01.640Z,0.75
2023-04-27T09:38:01.702Z,0.76
2023-04-27T09:39:01.739Z,0.76
2023-04-27T09:40:01.821Z,0.75
2023-04-27T09:41:01.895Z,0.74
2023-04-27T09:42:01.958Z,0.74
2023-04-27T09:43:02.052Z,0.74
2023-04-27T09:44:02.097Z,0.74
2023-04-27T09:45:02.135Z,0.75
2023-04-27T09:46:02.438Z,0.74
2023-04-27T09:47:02.243Z,0.74
2023-04-27T09:48:02.426Z,0.73
2023-04-27T09:49:02.572Z,0.76
2023-04-27T09:50:02.446Z,0.73
2023-04-27T09:51:02.930Z,0.75
2023-04-27T09:52:02.591Z,0.77
2023-04-27T09:53:02.616Z,0.80
2023-04-27T09:54:02.715Z,0.78
2023-04-27T09:55:02.780Z,0.80
2023-04-27T09:56:02.914Z,0.87
2023-04-27T09:57:02.863Z,0.82
2023-04-27T09:58:02.919Z,0.82
2023-04-27T09:59:02.959Z,0.79
2023-04-27T10:00:03.018Z,0.81
2023-04-27T10:01:03.130Z,0.79
2023-04-27T10:02:13.321Z,0.82
2023-04-27T10:03:04.165Z,0.82
2023-04-27T10:04:03.302Z,0.82
2023-04-27T10:05:03.191Z,0.80
2023-04-27T10:06:03.117Z,0.81
2023-04-27T10:07:03.100Z,0.81
2023-04-27T10:08:03.093Z,0.80
2023-04-27T10:09:03.081Z,0.81
2023-04-27T10:10:03.118Z,0.80
2023-04-27T10:11:03.101Z,0.81
2023-04-27T10:12:03.098Z,0.81
2023-04-27T10:13:03.129Z,0.79
2023-04-27T10:14:03.210Z,0.83
2023-04-27T10:15:03.252Z,0.82
2023-04-27T10:16:03.329Z,0.83
2023-04-27T10:17:03.413Z,0.84
2023-04-27T10:18:03.499Z,0.82
2023-04-27T10:19:03.471Z,0.81
2023-04-27T10:20:03.528Z,0.87
2023-04-27T10:21:03.918Z,0.83
2023-04-27T10:22:03.689Z,0.83
2023-04-27T10:23:03.690Z,0.86
2023-04-27T10:24:03.717Z,0.84
2023-04-27T10:25:03.760Z,0.86
2023-04-27T10:26:03.821Z,0.86
2023-04-27T10:27:03.862Z,0.83
2023-04-27T10:28:03.928Z,0.84
2023-04-27T10:29:03.978Z,0.83
2023-04-27T10:30:04.012Z,0.85
2023-04-27T10:31:04.104Z,0.86
2023-04-27T10:32:04.088Z,0.85
2023-04-27T10:33:04.163Z,0.86
2023-04-27T10:34:04.191Z,0.87
2023-04-27T10:35:04.242Z,0.85
2023-04-27T10:36:04.289Z,0.86
2023-04-27T10:37:04.294Z,0.87
2023-04-27T10:38:04.381Z,0.89
2023-04-27T10:39:04.413Z,0.96
2023-04-27T10:40:05.420Z,0.89
2023-04-27T10:41:04.511Z,0.91
2023-04-27T10:42:04.904Z,0.96
2023-04-27T10:43:04.581Z,1.05
2023-04-27T10:44:04.637Z,1.04
2023-04-27T10:45:04.698Z,1.05
2023-04-27T10:46:04.804Z,1.09
2023-04-27T10:47:04.740Z,1.08
2023-04-27T10:48:04.833Z,1.10
2023-04-27T10:49:04.789Z,1.14
2023-04-27T10:50:04.891Z,1.11
2023-04-27T10:51:04.882Z,1.16
2023-04-27T10:52:04.937Z,1.23
2023-04-27T10:53:04.910Z,1.20
2023-04-27T10:54:04.932Z,1.26
2023-04-27T10:55:04.959Z,1.22
2023-04-27T10:56:04.972Z,1.21
2023-04-27T10:57:04.980Z,1.26
2023-04-27T10:58:04.988Z,1.32
2023-04-27T10:59:04.999Z,1.33
2023-04-27T11:00:05.036Z,1.33
2023-04-27T11:01:05.031Z,1.34
2023-04-27T11:02:05.129Z,1.37
2023-04-27T11:03:05.131Z,1.37
2023-04-27T11:04:05.046Z,1.38
2023-04-27T11:05:05.073Z,1.33
2023-04-27T11:06:05.066Z,1.39
2023-04-27T11:07:05.459Z,1.42
2023-04-27T11:08:05.077Z,1.39
2023-04-27T11:09:05.075Z,1.46
2023-04-27T11:10:05.052Z,1.48
2023-04-27T11:11:05.074Z,1.49
2023-04-27T11:12:05.120Z,1.50
2023-04-27T11:13:05.070Z,1.36
2023-04-27T11:14:05.111Z,1.38
2023-04-27T11:15:05.112Z,1.33
2023-04-27T11:16:05.146Z,1.31
2023-04-27T11:17:05.164Z,1.28
2023-04-27T11:18:05.265Z,1.38
2023-04-27T11:19:05.258Z,1.42
2023-04-27T11:20:05.284Z,1.41
2023-04-27T11:21:05.331Z,1.40
2023-04-27T11:22:05.445Z,1.42
2023-04-27T11:23:05.424Z,1.41
2023-04-27T11:24:05.479Z,1.42
2023-04-27T11:25:05.517Z,1.40
2023-04-27T11:26:05.581Z,1.42
2023-04-27T11:27:05.668Z,1.44
2023-04-27T11:28:05.694Z,1.42
2023-04-27T11:29:05.773Z,1.45
2023-04-27T11:30:05.835Z,1.47
2023-04-27T11:31:05.922Z,1.47
2023-04-27T11:32:06.165Z,1.54
2023-04-27T11:33:06.075Z,1.64
2023-04-27T11:34:07.848Z,1.50
2023-04-27T11:35:06.142Z,1.50
2023-04-27T11:36:06.201Z,1.56
2023-04-27T11:37:18.055Z,1.59
2023-04-27T11:38:07.270Z,1.59
2023-04-27T11:39:06.450Z,1.62
2023-04-27T11:40:06.268Z,1.66
2023-04-27T11:41:06.269Z,1.66
2023-04-27T11:42:06.279Z,1.70
2023-04-27T11:43:06.285Z,1.64
2023-04-27T11:44:06.223Z,1.69
2023-04-27T11:45:06.221Z,1.71
2023-04-27T11:46:06.267Z,1.68
2023-04-27T11:47:06.430Z,1.68
2023-04-27T11:48:06.497Z,1.64
2023-04-27T11:49:06.448Z,1.63
2023-04-27T11:50:06.519Z,1.61
2023-04-27T11:51:06.525Z,1.62
2023-04-27T11:52:06.990Z,1.62
2023-04-27T11:53:06.607Z,1.57
2023-04-27T11:54:06.619Z,1.59
2023-04-27T11:55:06.644Z,1.59
2023-04-27T11:56:06.678Z,1.56
2023-04-27T11:57:06.706Z,1.55
2023-04-27T11:58:06.717Z,1.55
2023-04-27T11:59:06.679Z,1.52
2023-04-27T12:00:06.673Z,1.49
2023-04-27T12:01:06.738Z,1.52
2023-04-27T12:02:06.699Z,1.50
2023-04-27T12:03:06.868Z,1.48
2023-04-27T12:04:06.781Z,1.48
2023-04-27T12:05:07.034Z,1.46
2023-04-27T12:06:27.584Z,1.46
2023-04-27T12:07:07.673Z,1.46
2023-04-27T12:08:06.711Z,1.45
2023-04-27T12:09:06.649Z,1.38
2023-04-27T12:10:06.653Z,1.33
2023-04-27T12:11:06.628Z,1.38
2023-04-27T12:12:06.663Z,1.71
2023-04-27T12:13:06.636Z,1.73
2023-04-27T12:14:06.594Z,1.70
2023-04-27T12:15:06.638Z,1.69
2023-04-27T12:16:06.622Z,1.65
2023-04-27T12:17:06.613Z,1.63
2023-04-27T12:18:06.686Z,1.61
2023-04-27T12:19:06.582Z,1.61
2023-04-27T12:20:06.575Z,1.62
2023-04-27T12:21:08.236Z,1.54
2023-04-27T12:22:06.582Z,1.54
2023-04-27T12:23:06.572Z,1.52
2023-04-27T12:24:06.562Z,1.53
2023-04-27T12:25:06.523Z,1.51
2023-04-27T12:26:06.556Z,1.52
2023-04-27T12:27:06.541Z,1.49
2023-04-27T12:28:06.523Z,1.50
2023-04-27T12:29:06.515Z,1.46
2023-04-27T12:30:06.510Z,1.46
2023-04-27T12:31:06.532Z,1.44
2023-04-27T12:32:06.519Z,1.41
2023-04-27T12:33:06.543Z,1.43
2023-04-27T12:34:06.493Z,1.36
2023-04-27T12:35:06.477Z,1.35
2023-04-27T12:36:06.490Z,1.36
2023-04-27T12:37:06.455Z,1.36
2023-04-27T12:38:06.459Z,1.39
2023-04-27T12:39:06.461Z,1.38
2023-04-27T12:40:06.432Z,1.39
2023-04-27T12:41:06.432Z,1.40
2023-04-27T12:42:06.516Z,1.41
2023-04-27T12:43:06.428Z,1.45
2023-04-27T12:44:06.432Z,1.43
2023-04-27T12:45:06.410Z,1.44
2023-04-27T12:46:06.459Z,1.47
2023-04-27T12:47:06.375Z,1.43
2023-04-27T12:48:06.413Z,1.46
2023-04-27T12:49:06.405Z,1.49
2023-04-27T12:50:06.366Z,1.49
2023-04-27T12:51:06.388Z,1.54
2023-04-27T12:52:06.461Z,1.53
2023-04-27T12:53:06.405Z,1.51
2023-04-27T12:54:06.494Z,1.48
2023-04-27T12:55:06.570Z,1.52
2023-04-27T12:56:06.621Z,1.52
2023-04-27T12:57:06.656Z,1.50
2023-04-27T12:58:06.692Z,1.55
2023-04-27T12:59:06.795Z,1.53
2023-04-27T13:00:06.857Z,1.52
2023-04-27T13:02:07.034Z,1.55
2023-04-27T13:03:07.020Z,1.55
2023-04-27T13:04:07.089Z,1.54
2023-04-27T13:05:06.934Z,1.55
2023-04-27T13:06:06.901Z,1.57
2023-04-27T13:07:06.877Z,1.56
2023-04-27T13:08:06.850Z,1.57
2023-04-27T13:09:06.856Z,1.57
2023-04-27T13:10:06.811Z,1.58
2023-04-27T13:11:06.854Z,1.59
2023-04-27T13:12:06.823Z,1.58
2023-04-27T13:13:06.809Z,1.58
2023-04-27T13:14:06.787Z,1.56
2023-04-27T13:15:06.819Z,1.56
2023-04-27T13:16:06.850Z,1.59
2023-04-27T13:17:06.787Z,1.66
2023-04-27T13:18:06.852Z,1.69
2023-04-27T13:19:06.765Z,1.72
2023-04-27T13:20:06.750Z,1.73